createdAt,value
2023-05-09T00:00:37.312Z,7.10
2023-05-09T00:03:05.967Z,7.32
2023-05-09T00:05:32.846Z,7.43
2023-05-09T00:07:59.719Z,7.22
2023-05-09T00:10:27.595Z,6.95
2023-05-09T00:12:54.487Z,7.45
2023-05-09T00:15:21.360Z,7.43
2023-05-09T00:17:48.234Z,7.22
2023-05-09T00:20:15.517Z,6.90
2023-05-09T00:22:42.427Z,6.85
2023-05-09T00:25:10.896Z,7.32
2023-05-09T00:27:37.840Z,7.15
2023-05-09T00:30:05.902Z,6.68
2023-05-09T00:32:33.967Z,6.97
2023-05-09T00:35:00.828Z,6.93
2023-05-09T00:37:28.689Z,7.05
2023-05-09T00:39:55.500Z,6.88
2023-05-09T00:42:22.372Z,7.47
2023-05-09T00:44:49.163Z,6.78
2023-05-09T00:47:16.027Z,6.38
2023-05-09T00:49:43.121Z,7.00
2023-05-09T00:52:09.990Z,6.93
2023-05-09T00:54:36.903Z,7.13
2023-05-09T00:57:03.876Z,6.57
2023-05-09T00:59:30.830Z,6.72
2023-05-09T01:01:57.630Z,7.80
2023-05-09T01:04:24.906Z,6.30
2023-05-09T01:07:19.087Z,6.47
2023-05-09T01:10:12.967Z,6.90
2023-05-09T01:12:56.107Z,6.90
2023-05-09T01:15:59.558Z,7.57
2023-05-09T01:18:34.670Z,6.77
2023-05-09T01:21:11.258Z,6.47
2023-05-09T01:23:44.365Z,7.15
2023-05-09T01:26:37.436Z,6.82
2023-05-09T01:29:30.244Z,7.00
2023-05-09T01:31:58.297Z,6.35
2023-05-09T01:34:28.891Z,7.15
2023-05-09T01:37:00.669Z,7.18
2023-05-09T01:39:29.403Z,6.55
2023-05-09T01:42:00.816Z,6.63
2023-05-09T01:44:34.067Z,7.60
2023-05-09T01:47:03.364Z,7.53
2023-05-09T01:49:32.558Z,7.03
2023-05-09T01:52:03.718Z,7.28
2023-05-09T01:54:31.185Z,7.78
2023-05-09T01:56:59.695Z,7.35
2023-05-09T01:59:28.545Z,7.20
2023-05-09T02:01:56.355Z,7.57
2023-05-09T02:04:23.929Z,7.53
2023-05-09T02:06:51.832Z,7.18
2023-05-09T02:09:20.093Z,6.80
2023-05-09T02:11:47.367Z,7.15
2023-05-09T02:14:14.669Z,6.97
2023-05-09T02:16:41.993Z,7.72
2023-05-09T02:19:08.987Z,7.10
2023-05-09T02:21:36.083Z,7.57
2023-05-09T02:24:04.044Z,7.20
2023-05-09T02:26:31.387Z,7.28
2023-05-09T02:28:59.409Z,6.55
2023-05-09T02:31:28.390Z,7.25
2023-05-09T02:33:56.364Z,7.40
2023-05-09T02:36:23.956Z,6.88
2023-05-09T02:38:52.053Z,6.60
2023-05-09T02:41:18.987Z,7.10
2023-05-09T02:43:46.281Z,7.18
2023-05-09T02:46:13.226Z,7.25
2023-05-09T02:48:40.165Z,6.63
2023-05-09T02:51:07.906Z,7.05
2023-05-09T02:53:34.731Z,7.03
2023-05-09T02:56:01.584Z,6.82
2023-05-09T02:58:28.804Z,6.82
2023-05-09T03:00:55.623Z,6.97
2023-05-09T03:03:23.364Z,6.93
2023-05-09T03:05:50.311Z,6.13
2023-05-09T03:08:17.114Z,6.82
2023-05-09T03:10:43.969Z,6.88
2023-05-09T03:13:10.830Z,6.30
2023-05-09T03:15:37.735Z,6.82
2023-05-09T03:18:04.700Z,6.30
2023-05-09T03:20:31.573Z,6.20
2023-05-09T03:22:58.354Z,7.80
2023-05-09T03:25:26.403Z,7.43
2023-05-09T03:27:53.304Z,7.47
2023-05-09T03:30:20.358Z,7.15
2023-05-09T03:32:47.232Z,7.22
2023-05-09T03:35:14.145Z,9.15
2023-05-09T03:37:41.143Z,6.85
2023-05-09T03:40:08.911Z,7.57
2023-05-09T03:42:35.744Z,8.10
2023-05-09T03:45:02.585Z,7.53
2023-05-09T03:47:30.200Z,7.40
2023-05-09T03:49:57.022Z,6.85
2023-05-09T03:52:23.835Z,6.55
2023-05-09T03:54:50.783Z,6.47
2023-05-09T03:57:17.627Z,6.05
2023-05-09T03:59:44.409Z,6.50
2023-05-09T04:02:11.524Z,6.18
2023-05-09T04:04:38.328Z,6.10
2023-05-09T04:07:05.243Z,6.32
2023-05-09T04:09:32.138Z,6.18
2023-05-09T04:11:59.013Z,5.70
2023-05-09T04:14:25.808Z,5.95
2023-05-09T04:16:52.696Z,6.10
2023-05-09T04:19:19.636Z,5.55
2023-05-09T04:21:46.445Z,5.95
2023-05-09T04:24:13.258Z,5.55
2023-05-09T04:26:40.350Z,5.47
2023-05-09T04:29:07.336Z,4.90
2023-05-09T04:31:34.270Z,5.55
2023-05-09T04:34:01.366Z,5.07
2023-05-09T04:36:28.911Z,5.40
2023-05-09T04:38:56.192Z,5.43
2023-05-09T04:41:23.943Z,4.88
2023-05-09T04:43:51.789Z,4.22
2023-05-09T04:46:18.652Z,4.72
2023-05-09T04:48:45.572Z,5.20
2023-05-09T04:51:12.466Z,4.95
2023-05-09T04:53:39.244Z,4.88
2023-05-09T04:56:06.242Z,5.18
2023-05-09T04:58:34.461Z,4.28
2023-05-09T05:01:01.266Z,4.75
2023-05-09T05:03:28.234Z,4.93
2023-05-09T05:05:55.085Z,4.47
2023-05-09T05:08:21.933Z,4.50
2023-05-09T05:10:49.585Z,4.65
2023-05-09T05:13:16.916Z,4.38
2023-05-09T05:15:43.920Z,4.15
2023-05-09T05:18:10.923Z,4.80
2023-05-09T05:20:39.959Z,4.63
2023-05-09T05:23:07.031Z,4.70
2023-05-09T05:25:34.120Z,4.72
2023-05-09T05:28:01.040Z,4.90
2023-05-09T05:30:28.032Z,4.13
2023-05-09T05:32:55.052Z,4.38
2023-05-09T05:35:23.384Z,4.65
2023-05-09T05:37:50.543Z,4.35
2023-05-09T05:40:17.424Z,4.90
2023-05-09T05:42:44.382Z,4.50
2023-05-09T05:45:11.535Z,4.22
2023-05-09T05:47:38.403Z,4.20
2023-05-09T05:50:08.212Z,4.70
2023-05-09T05:52:35.102Z,5.00
2023-05-09T05:55:02.020Z,4.18
2023-05-09T05:57:29.930Z,4.32
2023-05-09T05:59:56.829Z,4.57
2023-05-09T06:02:23.765Z,4.28
2023-05-09T06:04:50.617Z,4.35
2023-05-09T06:07:17.517Z,4.05
2023-05-09T06:09:44.377Z,4.47
2023-05-09T06:12:11.918Z,4.45
2023-05-09T06:14:38.696Z,4.38
2023-05-09T06:17:05.673Z,4.35
2023-05-09T06:19:32.475Z,4.30
2023-05-09T06:21:59.317Z,4.07
2023-05-09T06:24:35.894Z,4.03
2023-05-09T06:27:04.228Z,3.90
2023-05-09T06:29:31.062Z,3.70
2023-05-09T06:31:57.881Z,3.90
2023-05-09T06:34:24.731Z,4.22
2023-05-09T06:36:51.555Z,3.90
2023-05-09T06:39:18.405Z,3.65
2023-05-09T06:41:45.224Z,3.70
2023-05-09T06:44:11.990Z,3.75
2023-05-09T06:46:38.876Z,3.70
2023-05-09T06:49:08.581Z,4.07
2023-05-09T06:51:35.379Z,3.50
2023-05-09T06:54:02.156Z,3.50
2023-05-09T06:56:29.385Z,3.60
2023-05-09T06:58:56.222Z,3.42
2023-05-09T07:01:23.113Z,3.20
2023-05-09T07:03:49.892Z,3.53
2023-05-09T07:06:16.687Z,3.40
2023-05-09T07:08:43.489Z,3.58
2023-05-09T07:11:10.275Z,3.10
2023-05-09T07:13:37.162Z,3.60
2023-05-09T07:16:04.221Z,3.40
2023-05-09T07:18:31.072Z,3.45
2023-05-09T07:20:58.376Z,3.33
2023-05-09T07:23:26.077Z,3.30
2023-05-09T07:25:59.141Z,3.35
2023-05-09T07:28:26.334Z,3.30
2023-05-09T07:30:56.636Z,2.95
2023-05-09T07:33:23.791Z,3.28
2023-05-09T07:35:50.869Z,3.35
2023-05-09T07:38:17.684Z,3.63
2023-05-09T07:40:44.550Z,3.53
2023-05-09T07:43:11.392Z,3.80
2023-05-09T07:45:38.193Z,3.70
2023-05-09T07:48:05.595Z,3.03
2023-05-09T07:50:32.511Z,2.90
2023-05-09T07:53:00.069Z,3.17
2023-05-09T07:55:26.928Z,3.20
2023-05-09T07:57:53.699Z,3.63
2023-05-09T08:00:23.777Z,3.15
2023-05-09T08:02:51.613Z,3.22
2023-05-09T08:05:18.938Z,3.80
2023-05-09T08:07:46.418Z,3.10
2023-05-09T08:10:13.450Z,3.25
2023-05-09T08:12:40.379Z,3.33
2023-05-09T08:15:07.668Z,3.08
2023-05-09T08:17:34.585Z,3.00
2023-05-09T08:20:01.545Z,3.30
2023-05-09T08:22:28.508Z,3.42
2023-05-09T08:24:55.316Z,2.58
2023-05-09T08:27:22.142Z,2.95
2023-05-09T08:29:49.037Z,2.78
2023-05-09T08:32:15.830Z,3.10
2023-05-09T08:34:42.733Z,3.15
2023-05-09T08:37:09.568Z,3.05
2023-05-09T08:39:36.426Z,3.28
2023-05-09T08:42:03.452Z,2.50
2023-05-09T08:44:31.411Z,2.15
2023-05-09T08:47:03.365Z,2.50
2023-05-09T08:49:30.805Z,2.70
2023-05-09T08:51:57.948Z,3.35
2023-05-09T08:54:25.142Z,3.15
2023-05-09T08:56:52.200Z,3.25
2023-05-09T08:59:19.661Z,2.92
2023-05-09T09:01:47.105Z,3.20
2023-05-09T09:04:14.054Z,3.13
2023-05-09T09:06:41.424Z,2.65
2023-05-09T09:09:09.117Z,2.92
2023-05-09T09:11:38.895Z,3.28
2023-05-09T09:14:13.203Z,3.20
2023-05-09T09:16:42.756Z,3.35
2023-05-09T09:19:13.516Z,3.20
2023-05-09T09:21:43.239Z,3.15
2023-05-09T09:24:13.452Z,3.33
2023-05-09T09:26:48.591Z,3.60
2023-05-09T09:29:18.590Z,3.35
2023-05-09T09:31:46.726Z,3.42
2023-05-09T09:34:20.267Z,3.25
2023-05-09T09:36:48.380Z,3.08
2023-05-09T09:39:15.854Z,3.35
2023-05-09T09:41:44.636Z,3.10
2023-05-09T09:44:16.913Z,2.90
2023-05-09T09:46:52.167Z,3.03
2023-05-09T09:49:24.518Z,3.47
2023-05-09T09:51:58.498Z,2.97
2023-05-09T09:54:28.784Z,3.63
2023-05-09T09:56:56.921Z,3.00
2023-05-09T09:59:25.779Z,3.20
2023-05-09T10:01:58.241Z,3.50
2023-05-09T10:04:26.700Z,3.55
2023-05-09T10:07:03.660Z,2.83
2023-05-09T10:09:31.463Z,2.85
2023-05-09T10:12:03.298Z,3.28
2023-05-09T10:14:34.846Z,3.00
2023-05-09T10:17:03.771Z,3.30
2023-05-09T10:19:32.127Z,3.20
2023-05-09T10:22:01.772Z,3.50
2023-05-09T10:24:46.977Z,3.50
2023-05-09T10:27:17.652Z,3.00
2023-05-09T10:29:54.148Z,2.60
2023-05-09T10:32:46.265Z,2.92
2023-05-09T10:35:17.082Z,3.40
2023-05-09T10:37:45.720Z,3.40
2023-05-09T10:40:15.731Z,2.58
2023-05-09T10:42:43.891Z,3.40
2023-05-09T10:45:12.779Z,3.40
2023-05-09T10:47:44.343Z,3.20
2023-05-09T10:50:13.125Z,3.08
2023-05-09T10:53:04.874Z,2.85
2023-05-09T10:55:55.416Z,2.83
2023-05-09T10:58:31.338Z,3.30
2023-05-09T11:01:00.556Z,3.22
2023-05-09T11:03:29.889Z,3.50
2023-05-09T11:05:58.798Z,3.00
2023-05-09T11:08:33.227Z,3.05
2023-05-09T11:11:06.846Z,3.33
2023-05-09T11:13:40.616Z,2.83
2023-05-09T11:16:11.997Z,2.78
2023-05-09T11:18:52.755Z,2.80
2023-05-09T11:21:20.975Z,2.63
2023-05-09T11:23:48.604Z,2.83
2023-05-09T11:26:16.117Z,2.90
2023-05-09T11:28:53.236Z,3.10
2023-05-09T11:31:20.537Z,3.20
2023-05-09T11:33:55.158Z,3.05
2023-05-09T11:36:33.276Z,3.00
2023-05-09T11:39:03.227Z,2.95
2023-05-09T11:41:31.450Z,3.03
2023-05-09T11:44:00.366Z,3.03
2023-05-09T11:46:27.616Z,3.03
2023-05-09T11:48:54.584Z,2.83
2023-05-09T11:51:21.908Z,3.00
2023-05-09T11:53:54.067Z,2.90
2023-05-09T11:56:23.053Z,2.83
2023-05-09T11:58:51.684Z,2.70
2023-05-09T12:01:18.580Z,2.42
2023-05-09T12:03:45.994Z,2.88
2023-05-09T12:06:17.731Z,2.33
2023-05-09T12:08:46.741Z,2.95
2023-05-09T12:11:15.154Z,2.53
2023-05-09T12:13:49.956Z,2.50
2023-05-09T12:16:18.373Z,2.47
2023-05-09T12:18:51.527Z,2.45
2023-05-09T12:21:19.432Z,2.45
2023-05-09T12:23:49.868Z,2.60
2023-05-09T12:26:18.265Z,2.40
2023-05-09T12:28:48.484Z,2.20
2023-05-09T12:31:16.187Z,2.33
2023-05-09T12:33:43.116Z,2.17
2023-05-09T12:36:15.924Z,2.47
2023-05-09T12:38:55.615Z,2.50
2023-05-09T12:44:01.237Z,2.45
2023-05-09T12:46:28.441Z,2.15
2023-05-09T12:48:55.660Z,2.50
2023-05-09T12:51:23.077Z,2.92
2023-05-09T12:53:50.126Z,2.35
2023-05-09T12:56:20.154Z,3.33
2023-05-09T12:58:49.549Z,2.13
2023-05-09T13:01:16.536Z,2.00
2023-05-09T13:04:04.631Z,2.05
2023-05-09T13:06:33.063Z,2.25
2023-05-09T13:09:02.765Z,1.80
2023-05-09T13:11:33.053Z,2.20
2023-05-09T13:14:00.415Z,1.88
2023-05-09T13:16:27.828Z,2.05
2023-05-09T13:18:57.274Z,2.00
2023-05-09T13:21:24.064Z,2.10
2023-05-09T13:23:54.443Z,2.33
2023-05-09T13:26:28.248Z,2.22
2023-05-09T13:28:56.389Z,2.17
2023-05-09T13:31:25.129Z,2.20
2023-05-09T13:33:54.772Z,2.15
2023-05-09T13:36:21.679Z,1.92
2023-05-09T13:38:49.113Z,2.15
2023-05-09T13:41:22.344Z,2.25
2023-05-09T13:43:58.426Z,1.88
2023-05-09T13:46:26.689Z,2.28
2023-05-09T13:48:54.333Z,2.10
2023-05-09T13:51:23.971Z,2.08
2023-05-09T13:53:51.291Z,2.10
2023-05-09T13:56:18.190Z,1.98
2023-05-09T13:58:44.990Z,2.35
2023-05-09T14:01:11.970Z,2.10
2023-05-09T14:03:38.909Z,1.92
2023-05-09T14:06:05.875Z,2.10
2023-05-09T14:08:33.114Z,2.15
2023-05-09T14:10:59.903Z,2.03
2023-05-09T14:13:26.957Z,2.00
2023-05-09T14:15:54.059Z,2.33
2023-05-09T14:18:21.368Z,2.35
2023-05-09T14:20:48.452Z,2.40
2023-05-09T14:23:15.250Z,2.25
2023-05-09T14:25:42.317Z,2.35
2023-05-09T14:28:09.586Z,2.95
2023-05-09T14:30:36.664Z,2.42
2023-05-09T14:33:03.607Z,2.15
2023-05-09T14:35:33.770Z,2.30
2023-05-09T14:38:01.278Z,2.20
2023-05-09T14:40:31.855Z,2.25
2023-05-09T14:42:59.303Z,2.38
2023-05-09T14:45:26.502Z,2.33
2023-05-09T14:47:53.698Z,2.63
2023-05-09T14:50:21.545Z,2.63
2023-05-09T14:52:50.762Z,2.30
2023-05-09T14:55:18.445Z,2.30
2023-05-09T14:57:45.887Z,2.50
2023-05-09T15:00:21.332Z,2.42
2023-05-09T15:02:49.387Z,2.47
2023-05-09T15:05:16.723Z,2.45
2023-05-09T15:07:43.518Z,2.65
2023-05-09T15:10:10.722Z,2.38
2023-05-09T15:12:37.659Z,2.42
2023-05-09T15:15:18.737Z,2.58
2023-05-09T15:17:46.307Z,2.22
2023-05-09T15:20:19.976Z,2.40
2023-05-09T15:22:50.181Z,2.40
2023-05-09T15:25:17.421Z,2.85
2023-05-09T15:27:44.312Z,2.38
2023-05-09T15:30:12.193Z,2.30
2023-05-09T15:32:42.313Z,2.50
2023-05-09T15:35:09.378Z,2.28
2023-05-09T15:37:36.459Z,2.38
2023-05-09T15:40:03.935Z,2.88
2023-05-09T15:42:31.264Z,2.60
2023-05-09T15:44:58.032Z,2.85
2023-05-09T15:47:24.880Z,2.50
2023-05-09T15:49:51.712Z,2.05
2023-05-09T15:52:18.604Z,2.40
2023-05-09T15:54:45.522Z,2.47
2023-05-09T15:57:16.718Z,2.50
2023-05-09T15:59:43.497Z,2.60
2023-05-09T16:02:12.187Z,2.33
2023-05-09T16:04:39.113Z,2.13
2023-05-09T16:07:05.967Z,2.38
2023-05-09T16:09:32.928Z,2.38
2023-05-09T16:12:00.153Z,2.50
2023-05-09T16:14:27.545Z,2.40
2023-05-09T16:16:54.535Z,2.97
2023-05-09T16:19:22.133Z,2.75
2023-05-09T16:21:49.397Z,2.20
2023-05-09T16:24:16.352Z,2.40
2023-05-09T16:26:43.147Z,2.40
2023-05-09T16:29:10.590Z,2.33
2023-05-09T16:31:37.646Z,2.63
2023-05-09T16:34:04.585Z,2.30
2023-05-09T16:36:32.710Z,2.30
2023-05-09T16:38:59.610Z,2.38
2023-05-09T16:41:27.064Z,2.30
2023-05-09T16:43:54.002Z,2.58
2023-05-09T16:46:20.954Z,2.50
2023-05-09T16:48:47.796Z,2.60
2023-05-09T16:51:14.588Z,2.53
2023-05-09T16:53:41.454Z,2.40
2023-05-09T16:56:10.897Z,2.45
2023-05-09T16:58:38.026Z,2.22
2023-05-09T17:01:05.545Z,2.35
2023-05-09T17:03:32.370Z,2.40
2023-05-09T17:05:59.212Z,2.30
2023-05-09T17:08:26.009Z,2.70
2023-05-09T17:10:52.848Z,2.40
2023-05-09T17:13:19.710Z,2.40
2023-05-09T17:15:46.737Z,3.00
2023-05-09T17:18:19.353Z,2.60
2023-05-09T17:20:52.667Z,2.40
2023-05-09T17:23:25.786Z,2.58
2023-05-09T17:25:52.651Z,2.30
2023-05-09T17:28:19.464Z,2.13
2023-05-09T17:30:46.662Z,2.70
2023-05-09T17:33:13.501Z,2.40
2023-05-09T17:35:40.516Z,2.08
2023-05-09T17:38:07.294Z,2.60
2023-05-09T17:40:34.152Z,2.47
2023-05-09T17:43:00.970Z,2.30
2023-05-09T17:45:27.941Z,2.38
2023-05-09T17:47:54.846Z,2.60
2023-05-09T17:50:21.704Z,2.60
2023-05-09T17:52:49.502Z,2.22
2023-05-09T17:55:16.378Z,2.80
2023-05-09T17:57:43.360Z,2.80
2023-05-09T18:00:10.699Z,2.40
2023-05-09T18:02:37.868Z,2.50
2023-05-09T18:05:05.749Z,2.42
2023-05-09T18:07:33.754Z,5.00
2023-05-09T18:10:00.681Z,4.32
2023-05-09T18:12:31.130Z,3.22
2023-05-09T18:14:57.958Z,2.70
2023-05-09T18:17:24.821Z,2.22
2023-05-09T18:19:51.655Z,2.70
2023-05-09T18:22:25.172Z,2.78
2023-05-09T18:24:53.442Z,2.83
2023-05-09T18:27:21.615Z,2.83
2023-05-09T18:29:48.908Z,2.70
2023-05-09T18:32:17.426Z,3.05
2023-05-09T18:34:44.244Z,3.22
2023-05-09T18:37:12.526Z,2.90
2023-05-09T18:39:39.331Z,3.20
2023-05-09T18:42:06.516Z,2.80
2023-05-09T18:44:33.514Z,2.95
2023-05-09T18:47:00.388Z,3.17
2023-05-09T18:49:27.386Z,3.13
2023-05-09T18:51:54.992Z,3.00
2023-05-09T18:54:21.828Z,2.88
2023-05-09T18:56:49.563Z,2.63
2023-05-09T18:59:17.255Z,3.13
2023-05-09T19:01:44.325Z,3.00
2023-05-09T19:04:11.642Z,3.30
2023-05-09T19:06:38.462Z,3.20
2023-05-09T19:09:05.612Z,3.67
2023-05-09T19:11:32.460Z,3.65
2023-05-09T19:13:59.390Z,4.10
2023-05-09T19:16:26.646Z,3.90
2023-05-09T19:18:57.548Z,3.88
2023-05-09T19:21:25.446Z,3.65
2023-05-09T19:23:52.578Z,4.20
2023-05-09T19:26:19.952Z,4.13
2023-05-09T19:28:47.281Z,4.50
2023-05-09T19:31:15.340Z,4.07
2023-05-09T19:33:45.629Z,4.32
2023-05-09T19:36:14.949Z,4.00
2023-05-09T19:38:43.168Z,4.25
2023-05-09T19:41:13.880Z,3.90
2023-05-09T19:43:41.004Z,3.90
2023-05-09T19:46:08.122Z,3.75
2023-05-09T19:48:35.861Z,3.95
2023-05-09T19:51:02.806Z,4.00
2023-05-09T19:53:29.634Z,3.90
2023-05-09T19:55:57.813Z,4.70
2023-05-09T19:58:24.640Z,4.03
2023-05-09T20:00:51.504Z,4.15
2023-05-09T20:03:18.381Z,3.72
2023-05-09T20:05:45.282Z,3.50
2023-05-09T20:08:12.044Z,3.67
2023-05-09T20:10:38.884Z,3.38
2023-05-09T20:13:06.754Z,4.40
2023-05-09T20:15:33.799Z,3.63
2023-05-09T20:18:03.569Z,3.70
2023-05-09T20:20:32.256Z,3.65
2023-05-09T20:22:59.136Z,4.03
2023-05-09T20:25:26.079Z,3.85
2023-05-09T20:27:52.910Z,3.88
2023-05-09T20:30:21.050Z,4.47
2023-05-09T20:32:49.684Z,4.07
2023-05-09T20:35:16.533Z,4.10
2023-05-09T20:37:43.368Z,4.25
2023-05-09T20:40:10.427Z,3.90
2023-05-09T20:42:37.720Z,4.78
2023-05-09T20:45:05.357Z,3.88
2023-05-09T20:47:32.308Z,4.72
2023-05-09T20:49:59.162Z,4.93
2023-05-09T20:52:26.069Z,4.40
2023-05-09T20:54:52.862Z,4.03
2023-05-09T20:57:19.697Z,4.47
2023-05-09T20:59:46.509Z,4.50
2023-05-09T21:02:13.664Z,4.75
2023-05-09T21:04:40.512Z,4.53
2023-05-09T21:07:07.411Z,3.95
2023-05-09T21:09:34.219Z,4.03
2023-05-09T21:12:01.271Z,3.47
2023-05-09T21:14:28.057Z,4.10
2023-05-09T21:16:57.974Z,4.07
2023-05-09T21:19:24.997Z,4.50
2023-05-09T21:21:51.810Z,4.40
2023-05-09T21:24:18.671Z,4.10
2023-05-09T21:26:45.597Z,4.78
2023-05-09T21:29:12.425Z,4.13
2023-05-09T21:31:39.329Z,3.83
2023-05-09T21:34:10.004Z,3.65
2023-05-09T21:36:38.398Z,4.10
2023-05-09T21:39:09.050Z,4.00
2023-05-09T21:41:36.945Z,4.18
2023-05-09T21:44:05.663Z,4.00
2023-05-09T21:46:33.189Z,4.38
2023-05-09T21:49:01.111Z,4.35
2023-05-09T21:51:28.564Z,4.45
2023-05-09T21:53:55.647Z,4.30
2023-05-09T21:56:22.830Z,4.10
2023-05-09T21:58:49.693Z,4.20
2023-05-09T22:01:18.431Z,4.65
2023-05-09T22:03:46.006Z,4.15
2023-05-09T22:06:13.625Z,4.25
2023-05-09T22:08:40.533Z,4.47
2023-05-09T22:11:07.734Z,4.80
2023-05-09T22:13:35.999Z,4.10
2023-05-09T22:16:03.812Z,4.45
2023-05-09T22:18:31.346Z,4.50
2023-05-09T22:20:58.863Z,4.32
2023-05-09T22:23:25.756Z,4.70
2023-05-09T22:25:52.713Z,4.75
2023-05-09T22:28:19.605Z,4.47
2023-05-09T22:30:46.613Z,4.72
2023-05-09T22:33:13.901Z,5.15
2023-05-09T22:35:40.757Z,4.57
2023-05-09T22:38:07.590Z,4.78
2023-05-09T22:40:34.604Z,4.50
2023-05-09T22:43:01.480Z,5.22
2023-05-09T22:45:28.314Z,4.32
2023-05-09T22:47:55.126Z,5.05
2023-05-09T22:50:21.936Z,4.32
2023-05-09T22:52:48.861Z,4.88
2023-05-09T22:55:15.634Z,4.50
2023-05-09T22:57:42.513Z,4.78
2023-05-09T23:00:09.948Z,4.57
2023-05-09T23:02:37.260Z,5.10
2023-05-09T23:05:04.503Z,4.90
2023-05-09T23:07:31.550Z,5.05
2023-05-09T23:09:58.586Z,4.72
2023-05-09T23:12:25.428Z,4.85
2023-05-09T23:14:52.269Z,4.65
2023-05-09T23:17:19.165Z,4.72
2023-05-09T23:19:46.177Z,5.47
2023-05-09T23:22:13.110Z,5.30
2023-05-09T23:24:39.906Z,5.40
2023-05-09T23:27:06.871Z,5.10
2023-05-09T23:29:33.672Z,5.05
2023-05-09T23:32:00.450Z,5.20
2023-05-09T23:34:27.260Z,4.95
2023-05-09T23:36:54.110Z,4.57
2023-05-09T23:39:20.883Z,5.07
2023-05-09T23:41:48.027Z,5.43
2023-05-09T23:44:15.059Z,5.22
2023-05-09T23:46:41.941Z,5.47
2023-05-09T23:49:08.783Z,5.18
2023-05-09T23:51:36.267Z,5.43
2023-05-09T23:54:03.197Z,4.97
2023-05-09T23:56:31.157Z,4.90
2023-05-09T23:58:57.978Z,6.03
